.
WxDataArchive / Data Records for 2013-08-29
2013-08-28 August 2013 2013-08-30

Data Records for Thursday, 29 August 2013

Time	Temp	Chill	HIndex	Humid	Dewpt	 Wind 	HiWind	WindDir	Rain 	Barom 
-----	----	-----	------	-----	-----	------	------	-------	-----	----- 
00:00	74.7	74.7	74.7	85	69.9	0	1	135	0.00	29.969 
00:05	74.6	74.6	74.6	86	70.1	0	0	---	0.00	29.969 
00:10	74.6	74.6	74.6	86	70.1	0	0	---	0.00	29.969 
00:15	74.4	74.4	74.4	86	69.9	0	0	---	0.00	29.972 
00:20	74.4	74.4	74.4	86	69.9	0	1	135	0.00	29.972 
00:25	74.2	74.2	74.2	86	69.7	0	0	---	0.00	29.972 
00:30	74.2	74.2	74.2	86	69.7	0	0	---	0.00	29.974 
00:35	74.2	74.2	74.2	87	70.1	0	0	---	0.00	29.974 
00:40	74.0	74.0	74.0	87	69.9	0	0	---	0.00	29.974 
00:45	74.0	74.0	74.0	87	69.9	0	0	---	0.00	29.979 
00:50	74.0	74.0	74.0	87	69.9	0	0	---	0.00	29.979 
00:55	74.0	74.0	74.0	87	69.9	0	0	---	0.00	29.979 
01:00	74.0	74.0	74.0	87	69.9	0	0	---	0.00	29.972 
01:05	73.9	73.9	73.9	87	69.8	0	0	---	0.00	29.972 
01:10	73.7	73.7	73.7	87	69.6	0	0	---	0.00	29.972 
01:15	73.7	73.7	73.7	87	69.6	0	0	---	0.00	29.972 
01:20	73.5	73.5	73.5	87	69.4	0	1	135	0.00	29.972 
01:25	73.3	73.3	73.3	87	69.2	0	1	135	0.00	29.972 
01:30	73.3	73.3	73.3	87	69.2	0	0	---	0.00	29.970 
01:35	73.2	73.2	73.2	87	69.1	0	0	---	0.00	29.970 
01:40	73.0	73.0	73.0	87	68.9	0	0	---	0.00	29.970 
01:45	72.8	72.8	72.8	88	69.0	0	0	---	0.00	29.970 
01:50	72.8	72.8	72.8	88	69.0	0	0	---	0.00	29.970 
01:55	72.7	72.7	72.7	88	68.9	0	0	---	0.00	29.970 
02:00	72.5	72.5	72.5	88	68.7	0	0	---	0.00	29.970 
02:05	72.3	72.3	72.3	88	68.5	0	0	---	0.00	29.970 
02:10	72.3	72.3	72.3	88	68.5	0	0	---	0.00	29.970 
02:15	72.1	72.1	72.1	89	68.7	0	0	---	0.00	29.972 
02:20	72.1	72.1	72.1	89	68.7	0	0	---	0.00	29.972 
02:25	72.0	72.0	72.0	89	68.6	0	0	---	0.00	29.972 
02:30	71.8	71.8	71.8	89	68.4	0	0	---	0.00	29.969 
02:35	71.6	71.6	71.6	89	68.2	0	0	---	0.00	29.969 
02:40	71.5	71.5	71.5	89	68.1	0	0	---	0.00	29.969 
02:45	71.3	71.3	71.3	90	68.2	0	0	---	0.00	29.972 
02:50	71.3	71.3	71.3	90	68.2	0	0	---	0.00	29.972 
02:55	71.1	71.1	71.1	90	68.0	0	0	---	0.00	29.972 
03:00	70.9	70.9	70.9	90	67.8	0	0	---	0.00	29.971 
03:05	70.8	70.8	70.8	90	67.7	0	0	---	0.00	29.971 
03:10	70.8	70.8	70.8	90	67.7	0	0	---	0.00	29.971 
03:15	70.6	70.6	70.6	91	67.8	0	0	---	0.00	29.973 
03:20	70.4	70.4	70.4	91	67.6	0	0	---	0.00	29.973 
03:25	70.3	70.3	70.3	91	67.5	0	0	---	0.00	29.973 
03:30	70.1	70.1	70.1	91	67.3	0	0	---	0.00	29.972 
03:35	70.1	70.1	70.1	91	67.3	0	0	---	0.00	29.972 
03:40	69.9	69.9	69.9	91	67.1	0	0	---	0.00	29.972 
03:45	69.8	69.8	69.8	91	67.0	0	0	---	0.00	29.976 
03:50	69.8	69.8	69.8	92	67.4	0	0	---	0.00	29.976 
03:55	69.6	69.6	69.6	92	67.2	0	0	---	0.00	29.976 
04:00	69.4	69.4	69.4	92	67.0	0	0	---	0.00	29.981 
04:05	69.3	69.3	69.3	92	66.9	0	0	---	0.00	29.981 
04:10	69.3	69.3	69.3	92	66.9	0	0	---	0.00	29.981 
04:15	69.1	69.1	69.1	92	66.7	0	0	---	0.00	29.979 
04:20	69.1	69.1	69.1	92	66.7	0	0	---	0.00	29.979 
04:25	69.1	69.1	69.1	92	66.7	0	0	---	0.00	29.979 
04:30	68.9	68.9	68.9	92	66.5	0	0	---	0.00	29.975 
04:35	68.9	68.9	68.9	92	66.5	0	0	---	0.00	29.975 
04:40	68.8	68.8	68.8	92	66.4	0	0	---	0.00	29.975 
04:45	68.8	68.8	68.8	92	66.4	0	0	---	0.00	29.981 
04:50	68.6	68.6	68.6	92	66.2	0	0	---	0.00	29.981 
04:55	68.4	68.4	68.4	93	66.3	0	0	---	0.00	29.981 
05:00	68.4	68.4	68.4	93	66.3	0	0	---	0.00	29.985 
05:05	68.3	68.3	68.3	93	66.2	0	0	---	0.00	29.985 
05:10	68.1	68.1	68.1	93	66.0	0	0	---	0.00	29.985 
05:15	68.1	68.1	68.1	93	66.0	0	0	---	0.00	29.987 
05:20	67.9	67.9	67.9	93	65.8	0	0	---	0.00	29.987 
05:25	67.9	67.9	67.9	93	65.8	0	0	---	0.00	29.987 
05:30	67.8	67.8	67.8	93	65.7	0	0	---	0.00	29.989 
05:35	67.8	67.8	67.8	93	65.7	0	0	---	0.00	29.989 
05:40	67.6	67.6	67.6	93	65.5	0	0	---	0.00	29.989 
05:45	67.6	67.6	67.6	93	65.5	0	0	---	0.00	29.989 
05:50	67.4	67.4	67.4	93	65.3	0	0	---	0.00	29.989 
05:55	67.4	67.4	67.4	93	65.3	0	0	---	0.00	29.989 
06:00	67.4	67.4	67.4	93	65.3	0	0	---	0.00	29.992 
06:05	67.3	67.3	67.3	93	65.2	0	0	---	0.00	29.992 
06:10	67.1	67.1	67.1	93	65.0	0	0	---	0.00	29.992 
06:15	67.1	67.1	67.1	94	65.3	0	0	---	0.00	29.993 
06:20	66.9	66.9	66.9	94	65.1	0	0	---	0.00	29.993 
06:25	66.8	66.8	66.8	94	65.0	0	0	---	0.00	29.993 
06:30	66.8	66.8	66.8	94	65.0	0	0	---	0.00	29.996 
06:35	66.8	66.8	66.8	94	65.0	0	0	---	0.00	29.996 
06:40	66.8	66.8	66.8	94	65.0	0	0	---	0.00	29.996 
06:45	66.8	66.8	66.8	94	65.0	0	0	---	0.00	30.003 
06:50	66.6	66.6	66.6	94	64.8	0	0	---	0.00	30.003 
06:55	66.4	66.4	66.4	94	64.6	0	0	---	0.00	30.003 
07:00	66.3	66.3	66.3	94	64.5	0	0	---	0.00	30.007 
07:05	66.3	66.3	66.3	94	64.5	0	0	---	0.00	30.007 
07:10	66.3	66.3	66.3	94	64.5	0	0	---	0.00	30.007 
07:15	66.3	66.3	66.3	94	64.5	0	0	---	0.00	30.016 
07:20	66.4	66.4	66.4	94	64.6	0	0	---	0.00	30.016 
07:25	66.4	66.4	66.4	94	64.6	0	0	---	0.00	30.016 
07:30	66.4	66.4	66.4	94	64.6	0	0	---	0.00	30.017 
07:35	66.6	66.6	66.6	95	65.1	0	0	---	0.00	30.017 
07:40	66.6	66.6	66.6	95	65.1	0	0	---	0.00	30.017 
07:45	66.8	66.8	66.8	95	65.3	0	0	---	0.00	30.024 
07:50	66.9	66.9	66.9	95	65.4	0	0	---	0.00	30.024 
07:55	67.1	67.1	67.1	95	65.6	0	0	---	0.00	30.024 
08:00	67.4	67.4	67.4	95	65.9	0	0	---	0.00	30.028 
08:05	67.6	67.6	67.6	95	66.1	0	0	---	0.00	30.028 
08:10	67.9	67.9	67.9	95	66.4	0	0	---	0.00	30.028 
08:15	68.4	68.4	68.4	95	66.9	0	0	---	0.00	30.031 
08:20	68.8	68.8	68.8	95	67.3	0	0	---	0.00	30.031 
08:25	69.1	69.1	69.1	95	67.6	0	0	---	0.00	30.031 
08:30	69.4	69.4	69.4	94	67.6	0	0	---	0.00	30.028 
08:35	69.6	69.6	69.6	94	67.8	0	0	---	0.00	30.028 
08:40	69.8	69.8	69.8	94	68.0	0	1	135	0.00	30.028 
08:45	70.1	70.1	70.1	93	68.0	0	1	135	0.00	30.031 
08:50	70.3	70.3	70.3	93	68.2	0	1	135	0.00	30.031 
08:55	70.8	70.8	70.8	93	68.7	0	1	135	0.00	30.031 
09:00	70.9	70.9	70.9	92	68.5	0	1	135	0.00	30.032 
09:05	71.3	71.3	71.3	91	68.5	1	3	135	0.00	30.032 
09:10	71.6	71.6	71.6	90	68.5	0	1	135	0.00	30.032 
09:15	71.8	71.8	71.8	89	68.4	0	2	135	0.00	30.038 
09:20	72.3	72.3	72.3	89	68.9	0	1	135	0.00	30.038 
09:25	72.7	72.7	72.7	88	68.9	0	1	135	0.00	30.038 
09:30	72.8	72.8	72.8	86	68.4	1	2	135	0.00	30.036 
09:35	73.0	73.0	73.0	86	68.6	0	3	135	0.00	30.036 
09:40	73.3	73.3	73.3	85	68.5	0	2	135	0.00	30.036 
09:45	73.7	73.7	73.7	84	68.6	0	3	135	0.00	30.035 
09:50	74.2	74.2	74.2	85	69.4	0	3	135	0.00	30.035 
09:55	74.6	74.6	74.6	84	69.4	0	3	135	0.00	30.035 
10:00	74.7	74.7	74.7	82	68.8	0	2	135	0.00	30.032 
10:05	75.1	75.1	75.6	81	68.9	1	3	112	0.00	30.032 
10:10	75.4	75.4	76.0	81	69.1	0	2	112	0.00	30.032 
10:15	76.0	76.0	77.1	79	69.0	0	2	112	0.00	30.036 
10:20	76.7	76.7	78.2	77	68.9	0	2	112	0.00	30.036 
10:25	77.4	77.4	79.3	75	68.8	1	3	112	0.00	30.036 
10:30	78.1	78.1	80.3	74	69.1	0	1	112	0.00	30.036 
10:35	78.5	78.5	80.8	72	68.7	1	4	112	0.00	30.036 
10:40	79.0	79.0	81.3	68	67.5	1	3	112	0.00	30.036 
10:45	79.4	79.4	81.7	67	67.5	0	3	112	0.00	30.038 
10:50	80.1	80.1	82.5	65	67.2	0	2	112	0.00	30.038 
10:55	80.3	80.3	82.8	65	67.4	0	3	112	0.00	30.038 
11:00	80.5	80.5	82.9	64	67.2	1	3	112	0.00	30.035 
11:05	80.7	80.7	83.2	64	67.4	1	3	22	0.00	30.035 
11:10	81.2	81.2	83.8	63	67.4	1	3	112	0.00	30.035 
11:15	81.8	81.8	84.7	63	67.9	1	3	112	0.00	30.034 
11:20	81.8	81.8	84.5	62	67.5	2	6	68	0.00	30.034 
11:25	81.6	81.6	84.2	62	67.3	2	4	90	0.00	30.034 
11:30	81.8	81.8	84.5	62	67.5	1	3	90	0.00	30.035 
11:35	82.2	82.2	84.9	61	67.4	2	4	90	0.00	30.035 
11:40	82.4	82.4	85.4	62	68.0	1	3	90	0.00	30.035 
11:45	82.8	82.8	85.6	60	67.5	1	4	90	0.00	30.035 
11:50	82.8	82.8	85.6	60	67.5	1	3	90	0.00	30.035 
11:55	83.0	83.0	85.9	60	67.7	1	4	90	0.00	30.035 
12:00	83.4	83.4	86.3	59	67.5	1	2	90	0.00	30.036 
12:05	84.0	84.0	87.3	59	68.1	1	3	90	0.00	30.036 
12:10	83.8	83.8	86.7	58	67.4	2	4	90	0.00	30.036 
12:15	83.6	83.6	86.4	58	67.2	1	2	90	0.00	30.034 
12:20	84.0	84.0	87.0	58	67.6	1	3	90	0.00	30.034 
12:25	84.7	84.7	87.6	56	67.2	1	4	90	0.00	30.034 
12:30	84.5	84.5	87.8	58	68.1	2	7	90	0.00	30.034 
12:35	84.1	84.1	87.2	58	67.7	2	5	90	0.00	30.034 
12:40	84.0	84.0	86.7	57	67.1	2	6	90	0.00	30.034 
12:45	84.0	84.0	87.0	58	67.6	2	6	112	0.00	30.034 
12:50	84.0	84.0	87.3	59	68.1	3	6	90	0.00	30.034 
12:55	84.1	84.1	87.2	58	67.7	2	4	90	0.00	30.034 
13:00	84.3	84.3	87.2	57	67.4	1	4	90	0.00	30.034 
13:05	85.1	85.1	88.2	56	67.6	1	4	90	0.00	30.034 
13:10	84.9	84.9	87.9	56	67.4	3	7	90	0.00	30.034 
13:15	84.3	84.3	87.0	56	66.9	2	5	112	0.00	30.033 
13:20	84.3	84.3	87.5	58	67.9	2	5	90	0.00	30.033 
13:25	84.7	84.7	87.6	56	67.2	2	5	90	0.00	30.033 
13:30	85.3	85.3	88.8	57	68.3	1	4	90	0.00	30.026 
13:35	85.7	85.7	88.9	55	67.6	2	5	90	0.00	30.026 
13:40	86.5	86.5	89.9	54	67.8	1	5	248	0.00	30.026 
13:45	86.5	86.5	89.6	53	67.3	2	6	90	0.00	30.020 
13:50	86.1	86.1	89.2	54	67.5	2	6	112	0.00	30.020 
13:55	85.9	85.9	88.9	54	67.3	2	4	90	0.00	30.020 
14:00	85.9	85.9	88.9	54	67.3	2	5	90	0.00	30.022 
14:05	85.7	85.7	88.6	54	67.1	2	4	112	0.00	30.022 
14:10	86.3	86.3	89.3	53	67.1	1	3	135	0.00	30.022 
14:15	86.7	86.7	90.3	54	68.0	2	6	135	0.00	30.017 
14:20	86.7	86.7	89.9	53	67.5	2	6	135	0.00	30.017 
14:25	86.1	86.1	89.2	54	67.5	2	5	90	0.00	30.017 
14:30	85.9	85.9	88.9	54	67.3	1	5	90	0.00	30.013 
14:35	86.3	86.3	89.6	54	67.7	1	3	90	0.00	30.013 
14:40	86.7	86.7	90.3	54	68.0	2	6	90	0.00	30.013 
14:45	86.3	86.3	90.2	56	68.7	2	5	90	0.00	30.004 
14:50	85.7	85.7	89.2	56	68.2	2	5	112	0.00	30.004 
14:55	85.5	85.5	88.9	56	68.0	1	3	90	0.00	30.004 
15:00	84.9	84.9	87.9	56	67.4	1	4	112	0.00	30.005 
15:05	84.5	84.5	87.0	55	66.5	1	4	112	0.00	30.005 
15:10	84.5	84.5	86.7	54	66.0	2	5	90	0.00	30.005 
15:15	85.5	85.5	87.7	52	65.8	1	5	90	0.00	30.005 
15:20	86.5	86.5	89.6	53	67.3	2	6	68	0.00	30.005 
15:25	87.4	87.4	90.4	51	67.0	1	3	135	0.00	30.005 
15:30	88.2	88.2	91.0	49	66.6	1	3	90	0.00	30.000 
15:35	88.4	88.4	91.3	49	66.8	2	4	90	0.00	30.000 
15:40	88.0	88.0	91.0	50	67.0	2	4	135	0.00	30.000 
15:45	87.8	87.8	90.4	49	66.2	1	4	90	0.00	29.997 
15:50	88.0	88.0	90.3	48	65.8	1	3	135	0.00	29.997 
15:55	88.2	88.2	90.0	46	64.8	2	6	90	0.00	29.997 
16:00	87.6	87.6	89.4	47	64.8	2	5	112	0.00	29.996 
16:05	87.0	87.0	89.1	49	65.5	1	4	112	0.00	29.996 
16:10	87.0	87.0	89.1	49	65.5	1	4	112	0.00	29.996 
16:15	86.7	86.7	88.9	50	65.8	2	7	90	0.00	29.994 
16:20	86.7	86.7	88.6	49	65.2	1	5	90	0.00	29.994 
16:25	86.7	86.7	88.9	50	65.8	1	4	68	0.00	29.994 
16:30	86.7	86.7	88.6	49	65.2	2	5	90	0.00	29.994 
16:35	86.7	86.7	88.6	49	65.2	2	4	90	0.00	29.994 
16:40	86.7	86.7	88.3	48	64.6	2	6	90	0.00	29.994 
16:45	87.0	87.0	88.8	48	64.9	1	3	112	0.00	29.990 
16:50	87.0	87.0	89.1	49	65.5	1	2	135	0.00	29.990 
16:55	86.7	86.7	88.3	48	64.6	2	6	135	0.00	29.990 
17:00	86.7	86.7	88.6	49	65.2	2	4	68	0.00	29.988 
17:05	87.0	87.0	89.1	49	65.5	1	5	90	0.00	29.988 
17:10	87.0	87.0	88.8	48	64.9	1	4	90	0.00	29.988 
17:15	86.7	86.7	88.3	48	64.6	2	4	90	0.00	29.986 
17:20	86.7	86.7	88.6	49	65.2	2	4	90	0.00	29.986 
17:25	86.7	86.7	88.3	48	64.6	1	4	135	0.00	29.986 
17:30	86.5	86.5	88.1	48	64.4	1	6	90	0.00	29.987 
17:35	86.5	86.5	87.8	47	63.8	1	3	90	0.00	29.987 
17:40	86.7	86.7	88.1	47	64.0	0	2	112	0.00	29.987 
17:45	86.5	86.5	88.1	48	64.4	2	5	90	0.00	29.986 
17:50	86.1	86.1	87.2	47	63.5	2	4	112	0.00	29.986 
17:55	85.9	85.9	87.2	48	63.9	2	4	68	0.00	29.986 
18:00	85.9	85.9	87.5	49	64.5	1	4	68	0.00	29.980 
18:05	85.9	85.9	87.7	50	65.1	1	3	68	0.00	29.980 
18:10	85.7	85.7	87.4	50	64.9	1	3	90	0.00	29.980 
18:15	85.7	85.7	87.7	51	65.5	1	4	90	0.00	29.980 
18:20	85.5	85.5	87.4	51	65.3	1	3	90	0.00	29.980 
18:25	85.3	85.3	87.4	52	65.6	1	3	90	0.00	29.980 
18:30	84.9	84.9	86.6	51	64.7	1	3	90	0.00	29.982 
18:35	84.7	84.7	86.5	52	65.1	1	4	90	0.00	29.982 
18:40	84.5	84.5	86.0	51	64.4	1	4	90	0.00	29.982 
18:45	84.3	84.3	85.7	51	64.2	1	3	90	0.00	29.980 
18:50	84.3	84.3	86.0	52	64.7	0	2	90	0.00	29.980 
18:55	84.1	84.1	85.7	52	64.5	1	3	90	0.00	29.980 
19:00	84.1	84.1	85.9	53	65.1	0	2	90	0.00	29.978 
19:05	84.1	84.1	85.9	53	65.1	0	2	90	0.00	29.978 
19:10	84.0	84.0	86.0	54	65.5	0	1	90	0.00	29.978 
19:15	84.0	84.0	86.0	54	65.5	0	2	90	0.00	29.978 
19:20	83.8	83.8	85.7	54	65.3	0	1	90	0.00	29.978 
19:25	83.6	83.6	85.7	55	65.7	0	0	---	0.00	29.978 
19:30	83.4	83.4	85.4	55	65.5	0	1	90	0.00	29.977 
19:35	83.4	83.4	85.6	56	66.0	0	0	---	0.00	29.977 
19:40	83.2	83.2	85.3	56	65.8	0	1	90	0.00	29.977 
19:45	82.8	82.8	85.0	57	66.0	0	0	---	0.00	29.979 
19:50	82.6	82.6	84.7	57	65.8	0	0	---	0.00	29.979 
19:55	82.4	82.4	84.6	58	66.1	0	0	---	0.00	29.979 
20:00	82.0	82.0	84.1	58	65.7	0	0	---	0.00	29.985 
20:05	81.6	81.6	83.7	59	65.9	0	0	---	0.00	29.985 
20:10	81.2	81.2	83.2	59	65.5	0	0	---	0.00	29.985 
20:15	81.1	81.1	83.2	60	65.9	0	0	---	0.00	29.984 
20:20	80.5	80.5	82.5	61	65.8	0	0	---	0.00	29.984 
20:25	80.1	80.1	82.2	62	65.9	0	0	---	0.00	29.984 
20:30	79.8	79.8	81.9	63	66.1	0	0	---	0.00	29.991 
20:35	79.6	79.6	81.7	64	66.3	0	0	---	0.00	29.991 
20:40	79.2	79.2	81.2	64	65.9	0	0	---	0.00	29.991 
20:45	78.8	78.8	80.8	65	66.0	0	0	---	0.00	29.993 
20:50	78.5	78.5	80.5	66	66.2	0	0	---	0.00	29.993 
20:55	78.1	78.1	80.0	67	66.2	0	0	---	0.00	29.993 
21:00	77.9	77.9	79.8	68	66.5	0	0	---	0.00	29.994 
21:05	77.6	77.6	79.5	69	66.6	0	0	---	0.00	29.994 
21:10	77.4	77.4	79.3	71	67.2	0	0	---	0.00	29.994 
21:15	77.2	77.2	79.0	72	67.5	0	0	---	0.00	29.993 
21:20	77.0	77.0	78.7	73	67.7	0	0	---	0.00	29.993 
21:25	76.8	76.8	78.5	73	67.5	0	0	---	0.00	29.993 
21:30	76.7	76.7	78.3	74	67.8	0	0	---	0.00	29.993 
21:35	76.5	76.5	78.1	74	67.6	0	0	---	0.00	29.993 
21:40	76.1	76.1	77.5	74	67.2	0	0	---	0.00	29.993 
21:45	76.0	76.0	77.4	74	67.1	0	0	---	0.00	29.997 
21:50	75.8	75.8	77.1	75	67.3	0	0	---	0.00	29.997 
21:55	75.6	75.6	76.9	75	67.1	0	0	---	0.00	29.997 
22:00	75.4	75.4	76.6	75	66.9	0	0	---	0.00	30.001 
22:05	75.3	75.3	76.4	76	67.2	0	0	---	0.00	30.001 
22:10	75.1	75.1	76.2	76	67.0	0	0	---	0.00	30.001 
22:15	74.9	74.9	74.9	77	67.2	0	0	---	0.00	29.993 
22:20	74.7	74.7	74.7	77	67.0	0	0	---	0.00	29.993 
22:25	74.6	74.6	74.6	77	66.9	0	0	---	0.00	29.993 
22:30	74.4	74.4	74.4	78	67.1	0	0	---	0.00	29.994 
22:35	74.0	74.0	74.0	79	67.1	0	0	---	0.00	29.994 
22:40	74.0	74.0	74.0	79	67.1	0	0	---	0.00	29.994 
22:45	73.9	73.9	73.9	79	67.0	0	0	---	0.00	29.989 
22:50	73.9	73.9	73.9	79	67.0	0	0	---	0.00	29.989 
22:55	73.7	73.7	73.7	79	66.8	0	0	---	0.00	29.989 
23:00	73.5	73.5	73.5	79	66.6	0	0	---	0.00	29.988 
23:05	73.5	73.5	73.5	79	66.6	0	0	---	0.00	29.988 
23:10	73.3	73.3	73.3	80	66.7	0	0	---	0.00	29.988 
23:15	73.2	73.2	73.2	80	66.6	0	0	---	0.00	29.975 
23:20	73.0	73.0	73.0	81	66.8	0	0	---	0.00	29.975 
23:25	72.8	72.8	72.8	81	66.6	0	0	---	0.00	29.975 
23:30	72.7	72.7	72.7	81	66.5	0	0	---	0.00	29.973 
23:35	72.5	72.5	72.5	81	66.3	0	0	---	0.00	29.973 
23:40	72.3	72.3	72.3	82	66.5	0	0	---	0.00	29.973 
23:45	72.3	72.3	72.3	82	66.5	0	0	---	0.00	29.975 
23:50	72.1	72.1	72.1	83	66.6	0	0	---	0.00	29.975 
23:55	72.0	72.0	72.0	83	66.5	0	0	---	0.00	29.975 

CoCoRaHS
IN-AL-39
A2 Web Hosting
Creative Commons License
GoDaddy
search engine by freefind advanced

loaded 2018-11-15 14:10:26 • last modified 2010-11-18 10:43:29
Privacy PolicyDisclaimer
• wx.awcolley.com is powered by PmWiki v.2002016 •
• all content (unless otherwise noted) © 2018 A W Colley